Observation data for Hereford on 01/19/2019      Previous  Date  Next       Current Mesonet Observations  Soil Data  Daily Summary Page  Observations in Plain Language
KHES 190600Z 34019KT M01/M03 A3009 RMK A01 T10081026  RH  089%=      5-min Rain = 0
KHES 190605Z 34018KT M01/M03 A3009 RMK A01 T10091026  RH  089%=      5-min Rain = 0
KHES 190610Z 34018KT M01/M03 A3009 RMK A01 T10101027  RH  089%=      5-min Rain = 0
KHES 190615Z 34019KT M01/M03 A3009 RMK A01 T10111027  RH  089%=      5-min Rain = 0
KHES 190620Z 35020G25KT M01/M03 A301 RMK A01 T10101028  RH  088%=      5-min Rain = 0
KHES 190625Z 35022G27KT M01/M03 A3009 RMK A01 T10091030  RH  086%=      5-min Rain = 0
KHES 190630Z 35020G25KT M01/M03 A301 RMK A01 T10091031  RH  086%=      5-min Rain = 0
KHES 190635Z 35017KT M01/M03 A301 RMK A01 T10111032  RH  086%=      5-min Rain = 0
KHES 190640Z 35018G24KT M01/M03 A301 RMK A01 T10111032  RH  086%=      5-min Rain = 0
KHES 190645Z 35021G28KT M01/M03 A301 RMK A01 T10111033  RH  086%=      5-min Rain = 0
KHES 190650Z 35020G25KT M01/M03 A301 RMK A01 T10111033  RH  085%=      5-min Rain = 0
KHES 190655Z 35021G28KT M01/M03 A301 RMK A01 T10111034  RH  085%=      5-min Rain = 0
KHES 190700Z 35023G29KT M01/M04 A301 RMK A01 T10111036  RH  084%=      5-min Rain = 0
KHES 190705Z 35024G31KT M01/M04 A301 RMK A01 T10111037  RH  083%=      5-min Rain = 0
KHES 190710Z 36021G27KT M01/M04 A3011 RMK A01 T10121038  RH  083%=      5-min Rain = 0
KHES 190715Z 36021G26KT M01/M04 A3011 RMK A01 T10131038  RH  083%=      5-min Rain = 0
KHES 190720Z 36019G24KT M01/M04 A3011 RMK A01 T10131039  RH  083%=      5-min Rain = 0
KHES 190725Z 36019G24KT M01/M04 A3011 RMK A01 T10141039  RH  083%=      5-min Rain = 0
KHES 190730Z 36019G26KT M01/M04 A3011 RMK A01 T10141039  RH  084%=      5-min Rain = 0
KHES 190735Z 36018G24KT M02/M04 A3011 RMK A01 T10151039  RH  084%=      5-min Rain = 0
KHES 190740Z 36017G22KT M02/M04 A3011 RMK A01 T10151039  RH  084%=      5-min Rain = 0
KHES 190745Z 35016KT M02/M04 A3012 RMK A01 T10151039  RH  085%=      5-min Rain = 0
KHES 190750Z 35016KT M02/M04 A3012 RMK A01 T10151039  RH  084%=      5-min Rain = 0
KHES 190755Z 35017G22KT M02/M04 A3012 RMK A01 T10151039  RH  084%=      5-min Rain = 0
KHES 190800Z 35018G24KT M02/M04 A3012 RMK A01 T10151039  RH  084%=      5-min Rain = 0
KHES 190805Z 34017G24KT M02/M04 A3013 RMK A01 T10161039  RH  084%=      5-min Rain = 0
KHES 190810Z 35017G22KT M02/M04 A3013 RMK A01 T10161039  RH  085%=      5-min Rain = 0
KHES 190815Z 35016G22KT M02/M04 A3013 RMK A01 T10171039  RH  085%=      5-min Rain = 0
KHES 190820Z 35017G22KT M02/M04 A3013 RMK A01 T10171039  RH  085%=      5-min Rain = 0
KHES 190825Z 35016G21KT M02/M04 A3013 RMK A01 T10171039  RH  085%=      5-min Rain = 0
KHES 190830Z 35017G22KT M02/M04 A3013 RMK A01 T10161039  RH  085%=      5-min Rain = 0
KHES 190835Z 35017G24KT M02/M04 A3013 RMK A01 T10151039  RH  084%=      5-min Rain = 0
KHES 190840Z 35017KT M02/M04 A3013 RMK A01 T10151040  RH  084%=      5-min Rain = 0
KHES 190845Z 35018G23KT M02/M04 A3013 RMK A01 T10151040  RH  084%=      5-min Rain = 0
KHES 190850Z 35017KT M02/M04 A3013 RMK A01 T10151040  RH  083%=      5-min Rain = 0
KHES 190855Z 35016KT M02/M04 A3013 RMK A01 T10151040  RH  083%=      5-min Rain = 0
KHES 190900Z 36015G21KT M02/M04 A3014 RMK A01 T10161041  RH  083%=      5-min Rain = 0
KHES 190905Z 35013KT M02/M04 A3014 RMK A01 T10181042  RH  084%=      5-min Rain = 0
KHES 190910Z 35011KT M02/M04 A3015 RMK A01 T10191042  RH  084%=      5-min Rain = 0
KHES 190915Z 35010KT M02/M04 A3015 RMK A01 T10201042  RH  085%=      5-min Rain = 0
KHES 190920Z 36010KT M02/M04 A3015 RMK A01 T10211043  RH  085%=      5-min Rain = 0
KHES 190925Z 36009KT M02/M04 A3015 RMK A01 T10211044  RH  085%=      5-min Rain = 0
KHES 190930Z 00007KT M02/M05 A3015 RMK A01 T10241046  RH  085%=      5-min Rain = 0
KHES 190935Z 00006KT M03/M05 A3016 RMK A01 T10271049  RH  085%=      5-min Rain = 0
KHES 190940Z 34004KT M03/M05 A3016 RMK A01 T10301050  RH  086%=      5-min Rain = 0
KHES 190945Z 33003KT M03/M05 A3017 RMK A01 T10291048  RH  087%=      5-min Rain = 0
KHES 190950Z 33004KT M03/M05 A3017 RMK A01 T10311052  RH  086%=      5-min Rain = 0
KHES 190955Z 34005KT M03/M05 A3017 RMK A01 T10341054  RH  086%=      5-min Rain = 0
KHES 191000Z 33005KT M04/M06 A3017 RMK A01 T10371056  RH  087%=      5-min Rain = 0
KHES 191005Z 33006KT M04/M05 A3018 RMK A01 T10371054  RH  088%=      5-min Rain = 0
KHES 191010Z 33007KT M04/M05 A3018 RMK A01 T10361054  RH  087%=      5-min Rain = 0
KHES 191015Z 32009KT M04/M06 A3018 RMK A01 T10381055  RH  088%=      5-min Rain = 0
KHES 191020Z 32009KT M04/M05 A3018 RMK A01 T10361053  RH  088%=      5-min Rain = 0
KHES 191025Z 33008KT M04/M05 A3017 RMK A01 T10361053  RH  088%=      5-min Rain = 0
KHES 191030Z 34009KT M03/M05 A3017 RMK A01 T10271046  RH  087%=      5-min Rain = 0
KHES 191035Z 35007KT M02/M05 A3017 RMK A01 T10221045  RH  085%=      5-min Rain = 0
KHES 191040Z 35008KT M02/M05 A3017 RMK A01 T10191045  RH  083%=      5-min Rain = 0
KHES 191045Z 34011G16KT M02/M04 A3017 RMK A01 T10171042  RH  083%=      5-min Rain = 0
KHES 191050Z 34013KT M01/M04 A3017 RMK A01 T10111040  RH  081%=      5-min Rain = 0
KHES 191055Z 34014KT M01/M04 A3017 RMK A01 T10081040  RH  079%=      5-min Rain = 0
KHES 191100Z 35014KT M01/M04 A3017 RMK A01 T10071040  RH  078%=      5-min Rain = 0
KHES 191105Z 34012KT M01/M04 A3017 RMK A01 T10081041  RH  079%=      5-min Rain = 0
KHES 191110Z 34010KT M01/M04 A3018 RMK A01 T10111042  RH  079%=      5-min Rain = 0
KHES 191115Z 34010KT M01/M04 A3018 RMK A01 T10121043  RH  080%=      5-min Rain = 0
KHES 191120Z 33009KT M01/M04 A3018 RMK A01 T10131043  RH  080%=      5-min Rain = 0
KHES 191125Z 32008KT M01/M04 A3018 RMK A01 T10141044  RH  081%=      5-min Rain = 0
KHES 191130Z 32007KT M02/M04 A3018 RMK A01 T10151044  RH  080%=      5-min Rain = 0
KHES 191135Z 33008KT M02/M05 A3018 RMK A01 T10151045  RH  081%=      5-min Rain = 0
KHES 191140Z 33009KT M02/M05 A3018 RMK A01 T10161046  RH  080%=      5-min Rain = 0
KHES 191145Z 33010KT M02/M05 A3018 RMK A01 T10171047  RH  081%=      5-min Rain = 0
KHES 191150Z 33011KT M02/M05 A3018 RMK A01 T10171045  RH  081%=      5-min Rain = 0
KHES 191155Z 32011KT M02/M05 A3018 RMK A01 T10171046  RH  081%=      5-min Rain = 0
KHES 191200Z 32011KT M02/M05 A3019 RMK A01 T10191046  RH  082%=      5-min Rain = 0
KHES 191205Z 32011KT M02/M05 A3019 RMK A01 T10201047  RH  082%=      5-min Rain = 0
KHES 191210Z 33010KT M02/M05 A3019 RMK A01 T10221049  RH  082%=      5-min Rain = 0
KHES 191215Z 33010KT M02/M05 A3019 RMK A01 T10231049  RH  083%=      5-min Rain = 0
KHES 191220Z 33010KT M02/M05 A302 RMK A01 T10241049  RH  083%=      5-min Rain = 0
KHES 191225Z 33011KT M02/M05 A302 RMK A01 T10231048  RH  083%=      5-min Rain = 0
KHES 191230Z 33010KT M02/M05 A302 RMK A01 T10211047  RH  083%=      5-min Rain = 0
KHES 191235Z 33010KT M02/M05 A302 RMK A01 T10181046  RH  082%=      5-min Rain = 0
KHES 191240Z 33010KT M02/M05 A3021 RMK A01 T10171047  RH  080%=      5-min Rain = 0
KHES 191245Z 32009KT M02/M05 A3021 RMK A01 T10211050  RH  081%=      5-min Rain = 0
KHES 191250Z 32010KT M02/M05 A3021 RMK A01 T10211049  RH  082%=      5-min Rain = 0
KHES 191255Z 32010KT M02/M05 A3021 RMK A01 T10201047  RH  082%=      5-min Rain = 0
KHES 191300Z 33009KT M02/M05 A3021 RMK A01 T10211049  RH  082%=      5-min Rain = 0
KHES 191305Z 33008KT M02/M05 A3022 RMK A01 T10221050  RH  082%=      5-min Rain = 0
KHES 191310Z 31007KT M03/M05 A3022 RMK A01 T10271054  RH  082%=      5-min Rain = 0
KHES 191315Z 31008KT M03/M05 A3022 RMK A01 T10281053  RH  083%=      5-min Rain = 0
KHES 191320Z 30008KT M03/M05 A3022 RMK A01 T10261052  RH  083%=      5-min Rain = 0
KHES 191325Z 30008KT M03/M06 A3023 RMK A01 T10281055  RH  082%=      5-min Rain = 0
KHES 191330Z 29008KT M03/M06 A3023 RMK A01 T10321057  RH  083%=      5-min Rain = 0
KHES 191335Z 29007KT M03/M06 A3023 RMK A01 T10341058  RH  083%=      5-min Rain = 0
KHES 191340Z 30007KT M03/M06 A3023 RMK A01 T10331056  RH  084%=      5-min Rain = 0
KHES 191345Z 31008KT M03/M05 A3023 RMK A01 T10271052  RH  083%=      5-min Rain = 0
KHES 191350Z 31007KT M03/M05 A3023 RMK A01 T10251052  RH  082%=      5-min Rain = 0
KHES 191355Z 31007KT M03/M06 A3024 RMK A01 T10261056  RH  080%=      5-min Rain = 0
KHES 191400Z 31006KT M03/M06 A3024 RMK A01 T10291058  RH  081%=      5-min Rain = 0
KHES 191405Z 33007KT M03/M06 A3024 RMK A01 T10311058  RH  082%=      5-min Rain = 0
KHES 191410Z 33007KT M03/M06 A3024 RMK A01 T10281055  RH  082%=      5-min Rain = 0
KHES 191415Z 33008KT M02/M05 A3025 RMK A01 T10221051  RH  081%=      5-min Rain = 0
KHES 191420Z 33010KT M02/M05 A3025 RMK A01 T10151047  RH  079%=      5-min Rain = 0
KHES 191425Z 33012KT M01/M05 A3025 RMK A01 T10081045  RH  076%=      5-min Rain = 0
KHES 191430Z 34011KT M01/M05 A3025 RMK A01 T10051045  RH  075%=      5-min Rain = 0
KHES 191435Z 34012KT M00/M04 A3025 RMK A01 T10041044  RH  075%=      5-min Rain = 0
KHES 191440Z 34013KT M00/M04 A3026 RMK A01 T10021044  RH  074%=      5-min Rain = 0
KHES 191445Z 34012KT M00/M04 A3026 RMK A01 T10011043  RH  074%=      5-min Rain = 0
KHES 191450Z 33011G16KT 00/M04 A3027 RMK A01 T00011042  RH  073%=      5-min Rain = 0
KHES 191455Z 33011G16KT 00/M04 A3027 RMK A01 T00031041  RH  073%=      5-min Rain = 0
KHES 191500Z 34011KT 00/M04 A3027 RMK A01 T00041040  RH  073%=      5-min Rain = 0
KHES 191505Z 34012KT 01/M04 A3027 RMK A01 T00051040  RH  073%=      5-min Rain = 0
KHES 191510Z 34010KT 01/M04 A3028 RMK A01 T00051039  RH  073%=      5-min Rain = 0
KHES 191515Z 34008KT 00/M04 A3028 RMK A01 T00041038  RH  074%=      5-min Rain = 0
KHES 191520Z 33008KT 01/M04 A3028 RMK A01 T00051037  RH  074%=      5-min Rain = 0
KHES 191525Z 33007KT 01/M04 A3028 RMK A01 T00061036  RH  074%=      5-min Rain = 0
KHES 191530Z 33006KT 01/M04 A3029 RMK A01 T00081035  RH  073%=      5-min Rain = 0
KHES 191535Z 33006KT 01/M04 A3029 RMK A01 T00101035  RH  073%=      5-min Rain = 0
KHES 191540Z 33006KT 01/M03 A3029 RMK A01 T00111034  RH  072%=      5-min Rain = 0
KHES 191545Z 33006KT 01/M03 A303 RMK A01 T00121032  RH  073%=      5-min Rain = 0
KHES 191550Z 33005KT 01/M03 A303 RMK A01 T00141030  RH  073%=      5-min Rain = 0
KHES 191555Z 32006KT 02/M03 A303 RMK A01 T00151029  RH  073%=      5-min Rain = 0.01
KHES 191600Z 33007KT 02/M03 A303 RMK A01 T00151028  RH  073%=      5-min Rain = 0
KHES 191605Z 33007KT 02/M03 A303 RMK A01 T00171026  RH  074%=      5-min Rain = 0
KHES 191610Z 33008KT 02/M03 A303 RMK A01 T00181026  RH  073%=      5-min Rain = 0
KHES 191615Z 34009KT 02/M03 A303 RMK A01 T00191027  RH  072%=      5-min Rain = 0
KHES 191620Z 34009KT 02/M03 A303 RMK A01 T00211027  RH  071%=      5-min Rain = 0
KHES 191625Z 35008KT 02/M03 A3031 RMK A01 T00221026  RH  071%=      5-min Rain = 0
KHES 191630Z 35008KT 02/M03 A3031 RMK A01 T00241025  RH  071%=      5-min Rain = 0
KHES 191635Z 34008KT 02/M02 A3031 RMK A01 T00241022  RH  072%=      5-min Rain = 0
KHES 191640Z 33009KT 02/M02 A3031 RMK A01 T00241023  RH  072%=      5-min Rain = 0
KHES 191645Z 34009KT 03/M02 A3031 RMK A01 T00251024  RH  071%=      5-min Rain = 0
KHES 191650Z 34011KT 03/M02 A3031 RMK A01 T00261024  RH  070%=      5-min Rain = 0
KHES 191655Z 34011KT 03/M02 A3031 RMK A01 T00271024  RH  070%=      5-min Rain = 0
KHES 191700Z 34010KT 03/M02 A3032 RMK A01 T00281023  RH  070%=      5-min Rain = 0
KHES 191705Z 34010KT 03/M02 A3032 RMK A01 T00291020  RH  071%=      5-min Rain = 0
KHES 191710Z 34010KT 03/M02 A3032 RMK A01 T00301018  RH  071%=      5-min Rain = 0
KHES 191715Z 35011KT 03/M02 A3032 RMK A01 T00311019  RH  070%=      5-min Rain = 0
KHES 191720Z 35009KT 03/M02 A3032 RMK A01 T00331016  RH  071%=      5-min Rain = 0
KHES 191725Z 35011KT 04/M01 A3032 RMK A01 T00351013  RH  071%=      5-min Rain = 0
KHES 191730Z 35011KT 04/M01 A3032 RMK A01 T00371013  RH  071%=      5-min Rain = 0
KHES 191735Z 34013G18KT 04/M01 A3032 RMK A01 T00401010  RH  071%=      5-min Rain = 0
KHES 191740Z 35016KT 04/M02 A3032 RMK A01 T00401015  RH  068%=      5-min Rain = 0
KHES 191745Z 35014KT 04/M01 A3032 RMK A01 T00421014  RH  068%=      5-min Rain = 0
KHES 191750Z 35014KT 04/M01 A3032 RMK A01 T00441011  RH  068%=      5-min Rain = 0
KHES 191755Z 35014G19KT 05/M01 A3032 RMK A01 T00461010  RH  067%=      5-min Rain = 0
KHES 191800Z 35013G18KT 05/M00 A3032 RMK A01 T00501004  RH  069%=      5-min Rain = 0
KHES 191805Z 35013KT 05/M00 A3032 RMK A01 T00501004  RH  068%=      5-min Rain = 0.01
KHES 191810Z 35012KT 05/M00 A3031 RMK A01 T00531001  RH  069%=      5-min Rain = 0
KHES 191815Z 35011KT 06/M00 A3031 RMK A01 T00551001  RH  068%=      5-min Rain = 0
KHES 191820Z 00013KT 05/M00 A3031 RMK A01 T00541003  RH  067%=      5-min Rain = 0
KHES 191825Z 00012KT 06/M00 A3031 RMK A01 T00551004  RH  066%=      5-min Rain = 0
KHES 191830Z 36011KT 06/M01 A303 RMK A01 T00551006  RH  066%=      5-min Rain = 0
KHES 191835Z 00011KT 06/M00 A303 RMK A01 T00561004  RH  066%=      5-min Rain = 0
KHES 191840Z 36009KT 06/M00 A303 RMK A01 T00581002  RH  066%=      5-min Rain = 0
KHES 191845Z 00011KT 06/M00 A303 RMK A01 T00621001  RH  065%=      5-min Rain = 0
KHES 191850Z 00011KT 06/M00 A303 RMK A01 T00611003  RH  064%=      5-min Rain = 0
KHES 191855Z 35010KT 07/00 A303 RMK A01 T00650003  RH  065%=      5-min Rain = 0
KHES 191900Z 35010KT 06/M00 A303 RMK A01 T00641001  RH  064%=      5-min Rain = 0
KHES 191905Z 35010G16KT 07/M00 A303 RMK A01 T00671004  RH  061%=      5-min Rain = 0
KHES 191910Z 35015G20KT 07/M01 A303 RMK A01 T00661012  RH  058%=      5-min Rain = 0
KHES 191915Z 35013KT 07/M01 A303 RMK A01 T00671010  RH  059%=      5-min Rain = 0
KHES 191920Z 00012G17KT 07/M01 A3029 RMK A01 T00661010  RH  059%=      5-min Rain = 0
KHES 191925Z 36013KT 07/M01 A3029 RMK A01 T00681010  RH  058%=      5-min Rain = 0
KHES 191930Z 36012KT 07/M01 A3029 RMK A01 T00691010  RH  058%=      5-min Rain = 0
KHES 191935Z 36011KT 07/M01 A3029 RMK A01 T00711007  RH  058%=      5-min Rain = 0
KHES 191940Z 35011G17KT 07/M01 A3029 RMK A01 T00721007  RH  058%=      5-min Rain = 0
KHES 191945Z 36012KT 07/M01 A3029 RMK A01 T00731007  RH  058%=      5-min Rain = 0
KHES 191950Z 35012KT 07/M01 A3028 RMK A01 T00731008  RH  057%=      5-min Rain = 0
KHES 191955Z 35010G15KT 07/M01 A3028 RMK A01 T00741010  RH  056%=      5-min Rain = 0
KHES 192000Z 34009KT 07/M01 A3028 RMK A01 T00731007  RH  058%=      5-min Rain = 0
KHES 192005Z 35012KT 08/M01 A3027 RMK A01 T00761012  RH  054%=      5-min Rain = 0
KHES 192010Z 34008KT 08/M01 A3027 RMK A01 T00771012  RH  054%=      5-min Rain = 0
KHES 192015Z 34009KT 08/M02 A3027 RMK A01 T00761017  RH  052%=      5-min Rain = 0
KHES 192020Z 34008G14KT 08/M02 A3027 RMK A01 T00771015  RH  053%=      5-min Rain = 0
KHES 192025Z 32008G13KT 08/M01 A3026 RMK A01 T00781014  RH  053%=      5-min Rain = 0
KHES 192030Z 34007G12KT 08/M01 A3026 RMK A01 T00771014  RH  053%=      5-min Rain = 0
KHES 192035Z 34008KT 08/M01 A3026 RMK A01 T00841011  RH  052%=      5-min Rain = 0
KHES 192040Z 34008KT 09/M02 A3025 RMK A01 T00851016  RH  050%=      5-min Rain = 0
KHES 192045Z 35009G14KT 08/M02 A3025 RMK A01 T00841016  RH  050%=      5-min Rain = 0
KHES 192050Z 34009KT 09/M02 A3025 RMK A01 T00851016  RH  049%=      5-min Rain = 0
KHES 192055Z 34006KT 09/M02 A3025 RMK A01 T00861017  RH  049%=      5-min Rain = 0
KHES 192100Z 34008KT 09/M02 A3025 RMK A01 T00861019  RH  048%=      5-min Rain = 0
KHES 192105Z 34010KT 09/M03 A3025 RMK A01 T00881025  RH  045%=      5-min Rain = 0
KHES 192110Z 34006KT 09/M03 A3025 RMK A01 T00871027  RH  045%=      5-min Rain = 0
KHES 192115Z 34006KT 09/M03 A3024 RMK A01 T00891025  RH  045%=      5-min Rain = 0
KHES 192120Z 34008G13KT 09/M03 A3024 RMK A01 T00881026  RH  045%=      5-min Rain = 0
KHES 192125Z 33010KT 09/M03 A3024 RMK A01 T00891026  RH  045%=      5-min Rain = 0
KHES 192130Z 33008KT 09/M03 A3025 RMK A01 T00881027  RH  045%=      5-min Rain = 0
KHES 192135Z 35005KT 09/M03 A3025 RMK A01 T00901028  RH  044%=      5-min Rain = 0
KHES 192140Z 35005KT 09/M03 A3024 RMK A01 T00921027  RH  043%=      5-min Rain = 0
KHES 192145Z 29005KT 09/M03 A3024 RMK A01 T00901029  RH  043%=      5-min Rain = 0
KHES 192150Z 33003KT 09/M03 A3024 RMK A01 T00931029  RH  042%=      5-min Rain = 0
KHES 192155Z 30005KT 09/M03 A3024 RMK A01 T00931027  RH  043%=      5-min Rain = 0
KHES 192200Z 29006KT 09/M03 A3024 RMK A01 T00921027  RH  044%=      5-min Rain = 0
KHES 192205Z 33003KT 09/M03 A3024 RMK A01 T00931031  RH  042%=      5-min Rain = 0
KHES 192210Z 28005G10KT 09/M03 A3025 RMK A01 T00941032  RH  041%=      5-min Rain = 0
KHES 192215Z 31003G8KT 09/M03 A3025 RMK A01 T00931034  RH  041%=      5-min Rain = 0
KHES 192220Z 32005KT 10/M03 A3025 RMK A01 T00951027  RH  043%=      5-min Rain = 0
KHES 192225Z 35004G10KT 09/M04 A3024 RMK A01 T00941035  RH  040%=      5-min Rain = 0
KHES 192230Z 33002KT 10/M03 A3024 RMK A01 T00971032  RH  041%=      5-min Rain = 0
KHES 192235Z 00002KT 10/M03 A3024 RMK A01 T00971033  RH  040%=      5-min Rain = 0
KHES 192240Z 34004KT 10/M03 A3024 RMK A01 T00961033  RH  040%=      5-min Rain = 0
KHES 192245Z 35005KT 09/M03 A3024 RMK A01 T00941032  RH  041%=      5-min Rain = 0
KHES 192250Z 33005KT 09/M03 A3024 RMK A01 T00931031  RH  042%=      5-min Rain = 0
KHES 192255Z 36003KT 09/M04 A3024 RMK A01 T00931035  RH  041%=      5-min Rain = 0
KHES 192300Z 34002KT 09/M03 A3025 RMK A01 T00941032  RH  041%=      5-min Rain = 0
KHES 192305Z 01003KT 10/M03 A3025 RMK A01 T00951034  RH  040%=      5-min Rain = 0
KHES 192310Z 01004KT 09/M03 A3024 RMK A01 T00921031  RH  042%=      5-min Rain = 0
KHES 192315Z 02004KT 09/M03 A3025 RMK A01 T00911029  RH  043%=      5-min Rain = 0
KHES 192320Z 03002KT 09/M03 A3025 RMK A01 T00921033  RH  042%=      5-min Rain = 0
KHES 192325Z 03003KT 09/M03 A3025 RMK A01 T00911025  RH  044%=      5-min Rain = 0
KHES 192330Z 04004KT 09/M03 A3025 RMK A01 T00871029  RH  044%=      5-min Rain = 0
KHES 192335Z 06004KT 09/M03 A3025 RMK A01 T00851029  RH  045%=      5-min Rain = 0
KHES 192340Z 05004KT 08/M03 A3025 RMK A01 T00821028  RH  046%=      5-min Rain = 0
KHES 192345Z 05004KT 08/M03 A3024 RMK A01 T00781029  RH  047%=      5-min Rain = 0
KHES 192350Z 05005KT 07/M03 A3024 RMK A01 T00741029  RH  048%=      5-min Rain = 0
KHES 192355Z 05005KT 07/M03 A3024 RMK A01 T00711028  RH  050%=      5-min Rain = 0
KHES 200000Z 05004KT 07/M03 A3024 RMK A01 T00681029  RH  050%=      5-min Rain = 0
KHES 200005Z 06004KT 07/M03 A3024 RMK A01 T00661029  RH  051%=      5-min Rain = 0
KHES 200010Z 10003KT 07/M03 A3025 RMK A01 T00651030  RH  051%=      5-min Rain = 0
KHES 200015Z 09003KT 07/M03 A3025 RMK A01 T00671032  RH  049%=      5-min Rain = 0
KHES 200020Z 08004KT 07/M03 A3025 RMK A01 T00651032  RH  050%=      5-min Rain = 0
KHES 200025Z 08004KT 06/M03 A3025 RMK A01 T00621032  RH  051%=      5-min Rain = 0
KHES 200030Z 10004KT 06/M03 A3025 RMK A01 T00611032  RH  052%=      5-min Rain = 0
KHES 200035Z 09005KT 06/M03 A3024 RMK A01 T00601031  RH  052%=      5-min Rain = 0
KHES 200040Z 08006KT 05/M03 A3024 RMK A01 T00541029  RH  055%=      5-min Rain = 0
KHES 200045Z 09006KT 05/M03 A3025 RMK A01 T00511026  RH  058%=      5-min Rain = 0
KHES 200050Z 10005KT 05/M02 A3024 RMK A01 T00501024  RH  059%=      5-min Rain = 0
KHES 200055Z 10006KT 05/M02 A3024 RMK A01 T00501024  RH  059%=      5-min Rain = 0
KHES 200100Z 10006KT 05/M03 A3023 RMK A01 T00461025  RH  060%=      5-min Rain = 0
KHES 200105Z 09006KT 05/M03 A3023 RMK A01 T00451025  RH  061%=      5-min Rain = 0
KHES 200110Z 10006KT 04/M03 A3023 RMK A01 T00441026  RH  061%=      5-min Rain = 0
KHES 200115Z 10006KT 04/M03 A3022 RMK A01 T00431027  RH  061%=      5-min Rain = 0
KHES 200120Z 11006KT 04/M03 A3022 RMK A01 T00411028  RH  061%=      5-min Rain = 0
KHES 200125Z 11007KT 04/M03 A3021 RMK A01 T00401029  RH  061%=      5-min Rain = 0
KHES 200130Z 11007KT 04/M03 A3022 RMK A01 T00411029  RH  061%=      5-min Rain = 0
KHES 200135Z 11005KT 04/M03 A3022 RMK A01 T00401030  RH  061%=      5-min Rain = 0
KHES 200140Z 11004KT 04/M03 A3023 RMK A01 T00381031  RH  061%=      5-min Rain = 0
KHES 200145Z 12004KT 04/M03 A3023 RMK A01 T00371031  RH  062%=      5-min Rain = 0
KHES 200150Z 12004KT 04/M03 A3023 RMK A01 T00371031  RH  061%=      5-min Rain = 0
KHES 200155Z 11002KT 04/M03 A3024 RMK A01 T00361032  RH  062%=      5-min Rain = 0
KHES 200200Z 11001KT 04/M03 A3025 RMK A01 T00351032  RH  062%=      5-min Rain = 0
KHES 200205Z 12002KT 03/M03 A3025 RMK A01 T00321033  RH  063%=      5-min Rain = 0
KHES 200210Z 12002KT 03/M04 A3025 RMK A01 T00281035  RH  064%=      5-min Rain = 0
KHES 200215Z 12003KT 02/M03 A3024 RMK A01 T00241034  RH  066%=      5-min Rain = 0
KHES 200220Z 13004KT 03/M03 A3024 RMK A01 T00261031  RH  066%=      5-min Rain = 0
KHES 200225Z 13004KT 03/M03 A3024 RMK A01 T00291032  RH  065%=      5-min Rain = 0
KHES 200230Z 14003KT 03/M03 A3025 RMK A01 T00291032  RH  065%=      5-min Rain = 0
KHES 200235Z 15003KT 03/M03 A3025 RMK A01 T00281033  RH  065%=      5-min Rain = 0
KHES 200240Z 15005KT 03/M03 A3023 RMK A01 T00261033  RH  066%=      5-min Rain = 0
KHES 200245Z 16005KT 02/M03 A3024 RMK A01 T00211034  RH  067%=      5-min Rain = 0
KHES 200250Z 15006KT 01/M03 A3022 RMK A01 T00141034  RH  071%=      5-min Rain = 0
KHES 200255Z 16005KT 01/M04 A3024 RMK A01 T00111036  RH  072%=      5-min Rain = 0
KHES 200300Z 16005KT 01/M04 A3024 RMK A01 T00071037  RH  073%=      5-min Rain = 0
KHES 200305Z 14005KT 01/M04 A3023 RMK A01 T00071036  RH  073%=      5-min Rain = 0
KHES 200310Z 15006KT 01/M04 A3023 RMK A01 T00091036  RH  072%=      5-min Rain = 0
KHES 200315Z 15005KT 01/M04 A3023 RMK A01 T00081037  RH  072%=      5-min Rain = 0
KHES 200320Z 15005KT 01/M04 A3024 RMK A01 T00071037  RH  073%=      5-min Rain = 0
KHES 200325Z 16006KT 00/M04 A3023 RMK A01 T00041038  RH  074%=      5-min Rain = 0
KHES 200330Z 16006KT 00/M04 A3023 RMK A01 T00031038  RH  075%=      5-min Rain = 0
KHES 200335Z 16006KT 00/M04 A3023 RMK A01 T00021038  RH  075%=      5-min Rain = 0
KHES 200340Z 16005KT 00/04 A3023 RMK A01 T00-00-39  RH  076%=      5-min Rain = 0
KHES 200345Z 16004KT M00/M04 A3023 RMK A01 T10011039  RH  076%=      5-min Rain = 0
KHES 200350Z 16005KT M00/M04 A3023 RMK A01 T10031040  RH  076%=      5-min Rain = 0
KHES 200355Z 17005KT M01/M04 A3023 RMK A01 T10051041  RH  077%=      5-min Rain = 0
KHES 200400Z 16005KT M01/M04 A3023 RMK A01 T10071042  RH  078%=      5-min Rain = 0
KHES 200405Z 17005KT M01/M04 A3023 RMK A01 T10061041  RH  078%=      5-min Rain = 0
KHES 200410Z 17005KT M01/M04 A3023 RMK A01 T10081043  RH  078%=      5-min Rain = 0
KHES 200415Z 17005KT M01/M04 A3023 RMK A01 T10081042  RH  078%=      5-min Rain = 0
KHES 200420Z 16005KT M01/M04 A3024 RMK A01 T10081043  RH  078%=      5-min Rain = 0
KHES 200425Z 17005KT M01/M04 A3024 RMK A01 T10101044  RH  078%=      5-min Rain = 0
KHES 200430Z 17005KT M01/M04 A3024 RMK A01 T10111044  RH  079%=      5-min Rain = 0
KHES 200435Z 18005KT M01/M04 A3024 RMK A01 T10121044  RH  079%=      5-min Rain = 0
KHES 200440Z 18006KT M01/M04 A3024 RMK A01 T10121044  RH  079%=      5-min Rain = 0
KHES 200445Z 17005KT M01/M04 A3024 RMK A01 T10121043  RH  079%=      5-min Rain = 0
KHES 200450Z 16006KT M01/M04 A3022 RMK A01 T10101043  RH  079%=      5-min Rain = 0
KHES 200455Z 16006KT M01/M04 A3023 RMK A01 T10091044  RH  078%=      5-min Rain = 0
KHES 200500Z 17005KT M01/M04 A3023 RMK A01 T10101044  RH  078%=      5-min Rain = 0
KHES 200505Z 17006KT M01/M04 A3024 RMK A01 T10101044  RH  078%=      5-min Rain = 0
KHES 200510Z 17006KT M01/M05 A3024 RMK A01 T10101046  RH  077%=      5-min Rain = 0
KHES 200515Z 17006KT M01/M04 A3024 RMK A01 T10091044  RH  077%=      5-min Rain = 0
KHES 200520Z 16007KT M01/M05 A3023 RMK A01 T10081045  RH  077%=      5-min Rain = 0
KHES 200525Z 17007KT M01/M05 A3023 RMK A01 T10081046  RH  076%=      5-min Rain = 0
KHES 200530Z 17007KT M01/M05 A3024 RMK A01 T10081045  RH  076%=      5-min Rain = 0
KHES 200535Z 16007KT M01/M05 A3023 RMK A01 T10071045  RH  076%=      5-min Rain = 0
KHES 200540Z 16006KT M01/M05 A3024 RMK A01 T10081046  RH  076%=      5-min Rain = 0
KHES 200545Z 16005KT M01/M05 A3024 RMK A01 T10081046  RH  076%=      5-min Rain = 0
KHES 200550Z 17006KT M01/M05 A3025 RMK A01 T10081047  RH  076%=      5-min Rain = 0
KHES 200555Z 17006KT M01/M05 A3025 RMK A01 T10091047  RH  076%=      5-min Rain = 0

Page generated in 0.0255 seconds.